Aérodrome :
LOGIN :

S'inscrire | Disclaimer

   EN    FR    IT 

 










Légende :    VFR   VFR Marginal   IFR   IFR Intensif   IFR Très Intensif
Visi : 
Plafond : 
>= 8 km
>= 3000ft
5 à 8 km
1000 à 3000 ft
1500m à 5 km
500 à 1000 ft
800 à 1500m
200 à 500 ft
< 800m
< 200 ft
Symboles :   Orages  Brouillard  Fortes neiges  Fortes précipitations  Vent > 20 kt
SIGMETs :   Divers  Orages  Givrage  Turbulence  Onde Orograph.  Cendres Volcan.







- Altitude de l'aérodrome : 1276 ft
- Code IATA : STR


EDDS - Stuttgart

DERNIER METAR :
  • 201420Z VRB09KT 9999 FEW031 BKN078 15/09 Q1021 NOSIG

METARs EXPIRÉS :
  • 201350Z 34008KT 310V010 9999 SCT031 BKN069 15/08 Q1021 NOSIG
  • 201320Z 27007KT 230V320 9999 SCT033 15/07 Q1021 NOSIG
  • 201250Z 33007KT 270V040 9999 SCT033 SCT081 15/08 Q1022 NOSIG
  • 201220Z 31006KT 260V020 9999 FEW033 SCT081 15/08 Q1022 NOSIG
  • 201150Z 32008KT 280V010 9999 FEW027 BKN081 14/07 Q1022 NOSIG

TAF TAF EDDS
Valide du 20 à 12h jusqu'au 21 à 12h UTC


201100Z 2012/2112 29005KT 9999 SCT030
BECMG 2017/2020 VRB03KT
PROB30
TEMPO 2103/2107 4500 BR
Pas de NOTAMs connus pour ce terrain.



MET'MAP, la Météo Aéronautique d'un coup d'oeil ! - Copyright ORBIFLY Décembre 2007 - Disclaimer

ORBIFLY MET'MAP TEAM :

Programmation & Développement : Alexandra Zaïnal
Conception & Développement : Baudouin d'Aumeries
Co-Programmation & Développement : Marc-Olivier Méhu
Soutien technique & logistique : Manuel Goepfert

Contact : metmap@orbifly.com




SOURCES & CREDITS :

   NOAA